Claremore, OK

4:22 PM CDT on August 03, 2015 (GMT -0500)
Rural Near Claremore Lake | | Change Station
CLOSE
Current Station
Personal Weather Station
Location: Claremore, OK
Elevation: 650 ft
Nearby Weather Stations

Elev 650 ft 36.34 °N, 95.58 °W | Updated 2 minutes ago

Partly Cloudy
Partly Cloudy
93.6 °F
Feels Like 103 °F
N
0.0
Wind Variable Wind from SW

Today
High -- | Low -- °F
--% Chance of Precip.
Yesterday
High -- | Low -- °F
Precip. -- in
6:30 AM 8:25 PM
Waning Gibbous, 84% visible
Pressure 29.88 in
Visibility 10.0 miles
Clouds Few 18000 ft
Mostly Cloudy 25000 ft
Heat Index 103 °F
Dew Point 73 °F
Humidity 51%
Rainfall 0.00 in
Snow Depth Not available.
UV 4 out of 12
Pollen 4.70 out of 12
Air Quality Not available.
Flu Activity Not available.
METAR KTUL 032053Z 14008KT 10SM FEW180 BKN250 34/19 A2991 RMK AO2 SLP119 T03390189 58005

More Conditions Fewer Conditions

Pressure 29.88 in
Visibility 10.0 miles
Clouds Few 18000 ft
Mostly Cloudy 25000 ft
Heat Index 103 °F
Dew Point 73 °F
Humidity 51%
Rainfall 0.00 in
Snow Depth Not available.
UV 4 out of 12
Pollen 4.70 out of 12
Air Quality Not available.
Flu Activity Not available.
METAR KTUL 032053Z 14008KT 10SM FEW180 BKN250 34/19 A2991 RMK AO2 SLP119 T03390189 58005

More Conditions Fewer Conditions

10-Day Weather Forecast

×

Almanac

Astronomy

Aug. 03, 2015 Rise Set
Actual Time
Civil Twilight
Nautical Twilight
Astronomical Twilight
Moon
Length of Visible Light
Length of Day
Tomorrow will be .
, % of the Moon is Illuminated

Today's Extremes

State Highs State Lows

Community

WunderPhotos

Upload Photos

1,843,770 photos uploaded!

WunderBlogs® & News

Nearby

Air Quality

  Air Quality AQ Index Pollutant
Not available.

Snow Depth

Station Depth Elevation

Earthquake Activity

City Distance Mag. Time & Date
Minimum magnitude displayed is 2.5.

Coastal Water Temperatures

Place Temperature

Stations

Nearby Weather Stations

Station Location Temp. Windchill Dew Point Humidity Wind Precip. Elev Updated Type